createdAt,value
2019-02-27T00:01:17.619Z,8.10
2019-02-27T00:03:59.822Z,8.00
2019-02-27T00:06:41.815Z,7.70
2019-02-27T00:09:23.491Z,7.80
2019-02-27T00:12:05.096Z,7.80
2019-02-27T00:14:45.853Z,7.70
2019-02-27T00:17:27.317Z,8.00
2019-02-27T00:20:08.162Z,7.80
2019-02-27T00:22:50.757Z,7.80
2019-02-27T00:25:35.870Z,7.90
2019-02-27T00:28:14.248Z,7.80
2019-02-27T00:30:55.197Z,7.70
2019-02-27T00:33:34.980Z,7.80
2019-02-27T00:45:13.428Z,7.70
2019-02-27T00:48:02.072Z,7.70
2019-02-27T00:53:59.940Z,7.70
2019-02-27T00:59:24.368Z,7.80
2019-02-27T01:02:04.035Z,7.70
2019-02-27T01:04:45.712Z,7.70
2019-02-27T01:07:27.308Z,7.80
2019-02-27T01:10:11.999Z,7.80
2019-02-27T01:12:51.240Z,7.70
2019-02-27T01:15:31.333Z,7.70
2019-02-27T01:18:19.912Z,7.70
2019-02-27T01:24:07.249Z,7.70
2019-02-27T01:26:56.266Z,7.90
2019-02-27T01:29:56.542Z,7.60
2019-02-27T01:32:35.240Z,7.70
2019-02-27T01:35:24.159Z,7.70
2019-02-27T01:38:24.549Z,7.70
2019-02-27T01:41:03.169Z,7.40
2019-02-27T01:47:02.324Z,7.60
2019-02-27T01:53:12.719Z,7.40
2019-02-27T01:55:49.057Z,7.30
2019-02-27T01:58:49.544Z,7.30
2019-02-27T02:01:39.784Z,7.30
2019-02-27T02:04:11.245Z,7.20
2019-02-27T02:06:52.915Z,7.20
2019-02-27T02:09:34.408Z,7.00
2019-02-27T02:12:15.559Z,7.20
2019-02-27T02:14:57.210Z,7.20
2019-02-27T02:17:41.039Z,7.40
2019-02-27T02:20:21.631Z,7.30
2019-02-27T02:23:02.776Z,7.40
2019-02-27T02:25:44.247Z,7.30
2019-02-27T02:28:25.649Z,7.30
2019-02-27T02:31:06.824Z,7.30
2019-02-27T02:33:48.465Z,7.30
2019-02-27T02:36:29.816Z,7.60
2019-02-27T02:39:11.405Z,7.40
2019-02-27T02:41:52.794Z,7.40
2019-02-27T02:44:34.211Z,7.60
2019-02-27T02:50:41.479Z,7.40
2019-02-27T02:53:49.211Z,7.20
2019-02-27T02:57:00.220Z,7.10
2019-02-27T02:59:39.980Z,7.10
2019-02-27T03:02:23.793Z,7.10
2019-02-27T03:05:03.823Z,7.50
2019-02-27T03:07:45.686Z,7.10
2019-02-27T03:10:26.883Z,7.00
2019-02-27T03:13:07.617Z,7.10
2019-02-27T03:15:49.222Z,7.40
2019-02-27T03:18:30.927Z,7.20
2019-02-27T03:21:12.196Z,7.00
2019-02-27T03:23:53.619Z,7.00
2019-02-27T03:26:35.052Z,7.30
2019-02-27T03:29:17.273Z,7.50
2019-02-27T03:32:00.979Z,7.20
2019-02-27T03:34:48.025Z,7.20
2019-02-27T03:37:24.669Z,7.40
2019-02-27T03:40:10.773Z,7.20
2019-02-27T03:42:48.843Z,7.20
2019-02-27T03:45:31.703Z,7.00
2019-02-27T03:48:12.818Z,7.10
2019-02-27T03:50:54.325Z,7.10
2019-02-27T03:53:35.069Z,7.10
2019-02-27T03:56:16.138Z,7.20
2019-02-27T03:58:57.582Z,7.10
2019-02-27T04:01:38.365Z,7.10
2019-02-27T04:04:20.199Z,7.10
2019-02-27T04:07:01.343Z,7.20
2019-02-27T04:09:42.952Z,7.20
2019-02-27T04:12:24.176Z,6.90
2019-02-27T04:15:05.665Z,7.20
2019-02-27T04:17:51.846Z,7.20
2019-02-27T04:20:29.144Z,6.90
2019-02-27T04:23:12.487Z,6.90
2019-02-27T04:25:53.182Z,7.00
2019-02-27T04:28:34.738Z,7.00
2019-02-27T04:31:16.416Z,6.90
2019-02-27T04:33:59.912Z,7.50
2019-02-27T04:36:39.723Z,7.40
2019-02-27T04:39:20.525Z,7.30
2019-02-27T04:42:02.027Z,7.30
2019-02-27T04:44:43.606Z,7.40
2019-02-27T04:47:28.861Z,7.30
2019-02-27T04:50:06.389Z,7.50
2019-02-27T04:52:57.649Z,7.50
2019-02-27T04:58:44.332Z,7.50
2019-02-27T05:01:36.449Z,7.60
2019-02-27T05:04:35.861Z,7.60
2019-02-27T05:07:14.252Z,7.80
2019-02-27T05:10:06.925Z,7.60
2019-02-27T05:12:53.440Z,7.70
2019-02-27T05:15:42.477Z,7.60
2019-02-27T05:18:31.083Z,7.70
2019-02-27T05:24:18.495Z,7.60
2019-02-27T05:27:07.131Z,7.60
2019-02-27T05:33:04.899Z,7.60
2019-02-27T05:44:55.525Z,7.70
2019-02-27T05:47:45.808Z,7.60
2019-02-27T05:53:42.470Z,7.70
2019-02-27T05:56:31.709Z,7.70
2019-02-27T05:59:20.746Z,7.80
2019-02-27T06:02:11.017Z,7.50
2019-02-27T06:05:12.242Z,7.40
2019-02-27T06:13:53.362Z,7.40
2019-02-27T06:16:32.080Z,7.40
2019-02-27T06:19:35.114Z,7.40
2019-02-27T06:22:27.339Z,7.40
2019-02-27T06:25:01.992Z,7.40
2019-02-27T06:27:50.706Z,7.30
2019-02-27T06:30:39.695Z,7.40
2019-02-27T06:33:28.333Z,7.30
2019-02-27T06:36:17.040Z,7.40
2019-02-27T06:42:21.336Z,7.50
2019-02-27T06:48:27.020Z,7.40
2019-02-27T06:57:34.556Z,7.40
2019-02-27T07:00:06.691Z,7.70
2019-02-27T07:02:47.486Z,7.70
2019-02-27T07:05:29.166Z,7.60
2019-02-27T07:08:10.644Z,7.60
2019-02-27T07:10:52.067Z,7.80
2019-02-27T07:13:33.548Z,7.90
2019-02-27T07:16:14.924Z,7.90
2019-02-27T07:18:56.488Z,8.10
2019-02-27T07:21:37.998Z,8.20
2019-02-27T07:24:19.647Z,8.30
2019-02-27T07:27:00.688Z,8.40
2019-02-27T07:29:42.909Z,8.40
2019-02-27T07:32:24.155Z,8.50
2019-02-27T07:35:05.299Z,8.70
2019-02-27T07:37:48.087Z,8.90
2019-02-27T07:40:29.720Z,9.00
2019-02-27T07:43:11.249Z,9.10
2019-02-27T07:45:54.317Z,9.30
2019-02-27T07:48:36.023Z,9.80
2019-02-27T07:51:17.404Z,9.60
2019-02-27T07:53:58.876Z,9.80
2019-02-27T07:56:39.902Z,10.00
2019-02-27T07:59:20.537Z,10.20
2019-02-27T08:02:03.085Z,10.50
2019-02-27T08:04:44.512Z,10.60
2019-02-27T08:07:25.984Z,10.70
2019-02-27T08:10:06.048Z,10.90
2019-02-27T08:13:08.608Z,11.00
2019-02-27T08:15:45.263Z,11.20
2019-02-27T08:24:41.956Z,11.80
2019-02-27T08:27:30.895Z,12.00
2019-02-27T08:30:32.306Z,12.20
2019-02-27T08:33:10.960Z,12.40
2019-02-27T08:36:11.448Z,12.60
2019-02-27T08:42:10.776Z,13.00
2019-02-27T08:44:49.608Z,13.10
2019-02-27T08:50:29.283Z,13.60
2019-02-27T08:53:08.457Z,13.70
2019-02-27T08:58:52.644Z,14.20
2019-02-27T09:05:09.588Z,14.60
2019-02-27T09:07:46.048Z,15.00
2019-02-27T09:10:34.698Z,14.90
2019-02-27T09:13:23.358Z,15.00
2019-02-27T09:22:20.600Z,15.50
2019-02-27T09:25:09.383Z,15.50
2019-02-27T09:27:58.545Z,15.90
2019-02-27T09:30:47.109Z,16.10
2019-02-27T09:33:54.890Z,16.30
2019-02-27T09:36:43.882Z,16.50
2019-02-27T09:39:47.955Z,16.70
2019-02-27T09:42:36.171Z,16.80
2019-02-27T09:45:34.941Z,17.00
2019-02-27T09:48:15.126Z,17.10
2019-02-27T09:51:03.993Z,17.30
2019-02-27T09:54:04.770Z,17.40
2019-02-27T09:56:43.209Z,17.60
2019-02-27T09:59:44.460Z,17.70
2019-02-27T10:02:22.895Z,17.80
2019-02-27T10:05:12.483Z,18.20
2019-02-27T10:10:57.024Z,18.30
2019-02-27T10:13:45.694Z,18.40
2019-02-27T10:16:34.865Z,18.50
2019-02-27T10:19:26.873Z,18.60
2019-02-27T10:22:29.757Z,18.80
2019-02-27T10:25:08.618Z,18.90
2019-02-27T10:27:56.208Z,19.00
2019-02-27T10:30:49.559Z,19.10
2019-02-27T10:33:35.942Z,19.20
2019-02-27T10:36:24.731Z,19.30
2019-02-27T10:39:13.367Z,19.50
2019-02-27T10:42:02.612Z,19.50
2019-02-27T10:45:02.847Z,19.60
2019-02-27T10:47:41.584Z,19.50
2019-02-27T10:50:23.127Z,19.80
2019-02-27T10:53:04.546Z,19.80
2019-02-27T10:55:48.623Z,19.80
2019-02-27T10:58:28.485Z,20.00
2019-02-27T11:01:09.628Z,20.10
2019-02-27T11:03:50.555Z,20.20
2019-02-27T11:06:34.242Z,20.20
2019-02-27T11:09:15.491Z,20.30
2019-02-27T11:11:56.577Z,20.40
2019-02-27T11:14:38.187Z,20.50
2019-02-27T11:17:19.705Z,20.60
2019-02-27T11:19:59.414Z,20.70
2019-02-27T11:22:47.986Z,20.90
2019-02-27T11:28:32.150Z,21.10
2019-02-27T11:31:20.730Z,21.20
2019-02-27T11:34:09.339Z,21.30
2019-02-27T11:37:13.237Z,21.20
2019-02-27T11:42:47.855Z,21.00
2019-02-27T11:45:36.832Z,20.90
2019-02-27T11:48:17.584Z,21.00
2019-02-27T11:50:58.460Z,21.00
2019-02-27T11:53:39.942Z,21.10
2019-02-27T11:56:21.308Z,21.20
2019-02-27T11:59:02.884Z,21.20
2019-02-27T12:01:44.872Z,21.30
2019-02-27T12:04:25.918Z,21.40
2019-02-27T12:07:07.461Z,21.50
2019-02-27T12:09:49.398Z,21.40
2019-02-27T12:12:30.476Z,21.40
2019-02-27T12:15:11.252Z,21.50
2019-02-27T12:17:52.515Z,21.50
2019-02-27T12:20:34.011Z,21.50
2019-02-27T12:23:15.613Z,21.50
2019-02-27T12:25:56.623Z,21.60
2019-02-27T12:28:37.869Z,21.60
2019-02-27T12:31:18.627Z,21.50
2019-02-27T12:34:02.440Z,21.40
2019-02-27T12:36:42.446Z,21.30
2019-02-27T12:39:23.654Z,21.20
2019-02-27T12:42:07.084Z,21.10
2019-02-27T12:44:46.847Z,21.20
2019-02-27T12:47:28.482Z,21.30
2019-02-27T12:50:09.696Z,21.10
2019-02-27T12:52:49.300Z,21.10
2019-02-27T12:55:38.230Z,21.20
2019-02-27T12:58:26.809Z,21.20
2019-02-27T13:01:16.356Z,21.30
2019-02-27T13:04:20.024Z,21.50
2019-02-27T13:15:42.918Z,21.30
2019-02-27T13:18:32.680Z,21.40
2019-02-27T13:21:22.140Z,21.50
2019-02-27T13:27:08.747Z,21.70
2019-02-27T13:33:04.744Z,21.60
2019-02-27T13:35:53.525Z,21.50
2019-02-27T13:38:42.147Z,21.50
2019-02-27T13:41:45.125Z,21.40
2019-02-27T13:44:21.493Z,21.60
2019-02-27T13:47:21.771Z,21.60
2019-02-27T13:49:53.350Z,21.60
2019-02-27T13:52:34.609Z,21.60
2019-02-27T13:55:15.410Z,21.60
2019-02-27T13:57:58.868Z,21.50
2019-02-27T14:00:39.120Z,21.60
2019-02-27T14:03:19.860Z,21.70
2019-02-27T14:06:00.576Z,21.70
2019-02-27T14:08:40.840Z,21.80
2019-02-27T14:11:29.686Z,22.00
2019-02-27T14:20:14.443Z,22.20
2019-02-27T14:28:55.166Z,22.10
2019-02-27T14:34:53.213Z,22.30
2019-02-27T14:37:34.612Z,22.20
2019-02-27T14:40:16.127Z,22.00
2019-02-27T14:42:57.537Z,21.90
2019-02-27T14:45:40.705Z,21.90
2019-02-27T14:48:22.286Z,21.90
2019-02-27T14:51:07.312Z,21.90
2019-02-27T14:53:55.702Z,21.90
2019-02-27T14:56:42.868Z,22.10
2019-02-27T15:02:30.776Z,22.60
2019-02-27T15:05:19.916Z,22.90
2019-02-27T15:08:08.483Z,23.10
2019-02-27T15:10:57.439Z,23.40
2019-02-27T15:13:46.551Z,23.70
2019-02-27T15:16:35.270Z,24.20
2019-02-27T15:19:23.846Z,24.50
2019-02-27T15:22:12.476Z,24.60
2019-02-27T15:31:05.096Z,24.50
2019-02-27T15:34:11.752Z,24.50
2019-02-27T15:39:45.833Z,24.40
2019-02-27T15:42:27.408Z,24.30
2019-02-27T15:45:09.958Z,24.10
2019-02-27T15:47:51.045Z,23.80
2019-02-27T15:50:32.576Z,23.60
2019-02-27T15:53:15.025Z,23.20
2019-02-27T15:55:56.378Z,22.90
2019-02-27T15:58:37.795Z,22.80
2019-02-27T16:01:18.619Z,22.60
2019-02-27T16:04:00.453Z,22.40
2019-02-27T16:06:41.941Z,22.30
2019-02-27T16:09:23.311Z,22.30
2019-02-27T16:12:03.245Z,22.20
2019-02-27T16:14:52.336Z,22.10
2019-02-27T16:20:53.877Z,21.80
2019-02-27T16:26:27.198Z,21.20
2019-02-27T16:29:16.588Z,21.00
2019-02-27T16:35:14.387Z,20.80
2019-02-27T16:38:03.038Z,20.70
2019-02-27T16:43:50.699Z,20.50
2019-02-27T16:49:34.595Z,20.30
2019-02-27T16:52:23.182Z,20.20
2019-02-27T16:58:32.810Z,20.00
2019-02-27T17:01:18.941Z,19.90
2019-02-27T17:04:07.851Z,19.70
2019-02-27T17:06:56.425Z,19.60
2019-02-27T17:09:45.250Z,19.40
2019-02-27T17:12:46.028Z,19.20
2019-02-27T17:15:16.794Z,18.90
2019-02-27T17:17:58.061Z,18.90
2019-02-27T17:20:38.766Z,18.80
2019-02-27T17:23:18.527Z,18.60
2019-02-27T17:26:07.525Z,18.50
2019-02-27T17:29:07.908Z,18.30
2019-02-27T17:31:49.389Z,18.20
2019-02-27T17:34:50.744Z,18.00
2019-02-27T17:37:27.462Z,17.80
2019-02-27T17:43:28.520Z,17.50
2019-02-27T17:46:14.364Z,17.40
2019-02-27T17:49:03.217Z,17.20
2019-02-27T17:51:52.084Z,17.10
2019-02-27T17:57:34.774Z,16.80
2019-02-27T18:00:44.370Z,16.70
2019-02-27T18:03:48.448Z,16.50
2019-02-27T18:06:25.621Z,16.40
2019-02-27T18:09:14.430Z,16.30
2019-02-27T18:14:55.449Z,16.10
2019-02-27T18:17:36.986Z,16.00
2019-02-27T18:20:17.785Z,15.90
2019-02-27T18:22:59.088Z,15.70
2019-02-27T18:25:42.081Z,15.70
2019-02-27T18:28:23.834Z,15.60
2019-02-27T18:31:05.467Z,15.50
2019-02-27T18:33:49.449Z,15.50
2019-02-27T18:36:29.135Z,15.40
2019-02-27T18:39:09.922Z,15.30
2019-02-27T18:41:51.832Z,15.20
2019-02-27T18:44:33.477Z,15.10
2019-02-27T18:47:14.686Z,15.00
2019-02-27T18:49:54.366Z,15.00
2019-02-27T18:52:42.929Z,14.90
2019-02-27T18:58:26.926Z,14.70
2019-02-27T19:04:28.799Z,14.50
2019-02-27T19:10:06.537Z,14.40
2019-02-27T19:12:46.354Z,14.30
2019-02-27T19:15:27.771Z,14.20
2019-02-27T19:18:09.260Z,14.20
2019-02-27T19:20:50.130Z,14.10
2019-02-27T19:23:30.926Z,14.00
2019-02-27T19:26:13.176Z,13.90
2019-02-27T19:28:59.305Z,13.90
2019-02-27T19:31:37.387Z,13.80
2019-02-27T19:34:18.616Z,13.80
2019-02-27T19:36:58.455Z,13.70
2019-02-27T19:39:46.996Z,13.70
2019-02-27T19:42:49.920Z,13.60
2019-02-27T19:48:35.842Z,13.50
2019-02-27T19:54:33.720Z,13.40
2019-02-27T19:57:22.328Z,13.30
2019-02-27T20:03:25.668Z,13.20
2019-02-27T20:06:14.740Z,13.20
2019-02-27T20:12:15.846Z,13.10
2019-02-27T20:14:56.374Z,13.00
2019-02-27T20:17:37.971Z,13.00
2019-02-27T20:20:19.471Z,13.00
2019-02-27T20:23:01.034Z,13.20
2019-02-27T20:25:44.249Z,12.90
2019-02-27T20:28:24.100Z,12.90
2019-02-27T20:31:05.677Z,12.90
2019-02-27T20:33:46.861Z,12.80
2019-02-27T20:36:30.371Z,12.80
2019-02-27T20:39:29.067Z,12.80
2019-02-27T20:45:17.302Z,12.60
2019-02-27T20:51:07.076Z,12.60
2019-02-27T20:53:44.060Z,12.60
2019-02-27T20:56:36.000Z,12.60
2019-02-27T20:59:26.042Z,12.60
2019-02-27T21:02:13.735Z,12.50
2019-02-27T21:05:02.440Z,12.50
2019-02-27T21:07:51.228Z,12.40
2019-02-27T21:10:39.877Z,12.30
2019-02-27T21:13:20.928Z,12.20
2019-02-27T21:16:04.339Z,12.20
2019-02-27T21:18:45.613Z,12.20
2019-02-27T21:21:27.160Z,12.10
2019-02-27T21:24:08.656Z,12.10
2019-02-27T21:26:49.807Z,12.10
2019-02-27T21:29:29.607Z,12.00
2019-02-27T21:32:18.185Z,12.20
2019-02-27T21:35:19.022Z,12.10
2019-02-27T21:37:57.609Z,12.40
2019-02-27T21:46:54.282Z,12.50
2019-02-27T21:49:42.959Z,12.20
2019-02-27T21:58:48.266Z,12.30
2019-02-27T22:04:36.176Z,12.20
2019-02-27T22:07:24.916Z,12.20
2019-02-27T22:10:19.047Z,12.20
2019-02-27T22:13:09.571Z,12.20
2019-02-27T22:18:53.326Z,12.30
2019-02-27T22:24:52.232Z,12.50
2019-02-27T22:27:43.214Z,12.60
2019-02-27T22:30:32.685Z,12.60
2019-02-27T22:36:45.826Z,12.80
2019-02-27T22:39:36.351Z,12.80
2019-02-27T22:42:14.761Z,12.80
2019-02-27T22:45:15.559Z,12.80
2019-02-27T22:47:54.700Z,12.80
2019-02-27T22:53:40.086Z,12.70
2019-02-27T22:56:28.775Z,12.50
2019-02-27T22:59:17.400Z,12.50
2019-02-27T23:02:06.118Z,12.40
2019-02-27T23:05:06.550Z,12.30
2019-02-27T23:07:44.993Z,12.20
2019-02-27T23:13:24.889Z,12.00
2019-02-27T23:16:06.364Z,11.90
2019-02-27T23:18:47.550Z,11.70
2019-02-27T23:21:27.366Z,11.70
2019-02-27T23:24:28.975Z,11.80
2019-02-27T23:30:15.886Z,11.50
2019-02-27T23:33:03.269Z,11.50
2019-02-27T23:35:51.986Z,11.40
2019-02-27T23:44:48.599Z,11.30
2019-02-27T23:56:23.567Z,11.40
2019-02-27T23:59:12.191Z,11.20
